Report METAR

 

LIBQ - Scuro Mountain, Italy
Distance from station: SE 95km
Dati ricevuti: 23/09/2021 18:55
DATI Obsoleti
Sereno
Sereno
 Vento da ENE
Vento: ENE 7 km/h
Temperatura: 9°C
Temperatura Vento: 8°C
P.to Rugiada: 4°C
Umidità: 71%
Barometro: 1024 hPa
Summary: Sereno
Visibility: superiore a 10 km
2021/09/23 16:55 LIBQ 231655Z 06004KT CAVOK 09/04 Q1024
LIRI - Pontecagnano (af, Italy
Distance from station: NO 96km
Dati ricevuti: 24/09/2021 18:50
DATI Obsoleti
Sereno
Sereno
 Vento da O
Vento: O 4 km/h
Temperatura: 23°C
P.to Rugiada: 15°C
Umidità: 61%
Barometro: 1019 hPa
Summary: Sereno
Visibility: superiore a 10 km
2021/09/24 16:50 LIRI 241650Z 27002KT CAVOK 23/15 Q1019
 
LIBH - Marina Di Ginosa, Italy
Distance from station: ENE 108km
Dati ricevuti: 24/09/2021 19:55
DATI Obsoleti

 Vento da NO
Vento: NO 7 km/h
2021/09/24 17:55 LIBH 241755Z 31004KT CAVOL 19/14 Q1018 RMK SKC QUK / QUL / VIS MAR 40 KM VIS MIN 9999
LIRT - Trevico, Italy
Distance from station: NNO 122km
Dati ricevuti: 24/09/2021 19:55
DATI Obsoleti

 
2021/09/24 17:55 LIRT 241755Z ///07KT CAVOK 16/14 Q1022 RMK SKC MON INVIS VAL INVIS VIS MIN 9999
 
LICA - Lamezia Terme, Italy
Distance from station: SSE 132km
Dati ricevuti: 25/09/2021 04:50
Sereno
Sereno
 Vento da ENE
Vento: ENE 9 km/h
Temperatura: 14°C
P.to Rugiada: 10°C
Umidità: 77%
Barometro: 1020 hPa
Nuvole: Sereno
Visibility: 10 km
2021/09/25 02:50 LICA 250250Z AUTO 06005KT 9999 NCD 14/10 Q1020
LIBV - Gioia Del Colle, Italy
Distance from station: NE 133km
Dati ricevuti: 25/09/2021 04:55
Sereno
Sereno
 Vento da S
Vento: S 4 km/h
Temperatura: 12°C
P.to Rugiada: 11°C
Umidità: 94%
Barometro: 1020 hPa
Summary: Sereno
Visibility: superiore a 10 km
2021/09/25 02:55 LIBV 250255Z 18002KT CAVOK 12/11 Q1020 RMK SKC VIS MIN 9999 WIND THR32 22004KT WIND THR14 18001KT BLU
 
LIQC - Capri Island, Italy
Distance from station: ONO 142km
Dati ricevuti: 25/09/2021 04:55
Sereno
Sereno
 Vento da NE
Vento: NE 7 km/h
Temperatura: 20°C
P.to Rugiada: 17°C
Umidità: 83%
Barometro: 1020 hPa
Summary: Sereno
Visibility: superiore a 10 km
2021/09/25 02:55 LIQC 250255Z 05004KT CAVOK 20/17 Q1020 RMK SKC QUK / QUL / VIS MAR 30 KM VIS MIN 9999